Ballengee, West Virginia
Current Conditions -  °F | °C
As of 1:51 AM on Thursday 27 Nov 2014 (Local Time) from KBKW Reporting Station
Overcast Overcast  
Wind Chill: 33°   Ceiling: 7000
Heat Index: 33°   Visibility: 7mi
Dew Point: 30°   Wind: 0mph
Humidity: 89%   Direction: NA
Pressure: 29.94"   Gusts: NA
Location:  37.62°N, 80.74°W
Report Text: KBKW 270651Z AUTO 00000KT 7SM FEW050 BKN070 OVC085 01/M01 A2994 RMK AO2 SLP163 T00061011
Loading
Personal Weather Stations






























Interactive Weather Map New forecast layout! Learn more

10-Day Weather Forecast

Advertisements
Track Severe Weather on mobile